createdAt,value
2018-05-01T00:02:09.906Z,66.51
2018-05-01T00:04:39.563Z,65.84
2018-05-01T00:07:09.170Z,65.30
2018-05-01T00:09:38.780Z,65.21
2018-05-01T00:12:08.422Z,65.31
2018-05-01T00:14:38.050Z,64.99
2018-05-01T00:17:07.401Z,64.94
2018-05-01T00:19:37.059Z,64.88
2018-05-01T00:22:06.677Z,64.91
2018-05-01T00:24:36.321Z,65.12
2018-05-01T00:27:05.969Z,65.21
2018-05-01T00:29:35.597Z,65.93
2018-05-01T00:34:33.705Z,67.16
2018-05-01T00:37:03.339Z,67.37
2018-05-01T00:39:32.959Z,68.03
2018-05-01T00:42:02.618Z,68.51
2018-05-01T00:44:31.986Z,69.18
2018-05-01T00:47:01.600Z,69.36
2018-05-01T00:49:31.259Z,69.74
2018-05-01T00:52:00.879Z,70.10
2018-05-01T00:54:30.155Z,70.65
2018-05-01T00:56:59.864Z,71.12
2018-05-01T00:59:29.490Z,71.23
2018-05-01T01:01:59.139Z,71.69
2018-05-01T01:04:28.785Z,71.76
2018-05-01T01:06:58.409Z,72.18
2018-05-01T01:09:28.054Z,72.39
2018-05-01T01:11:57.711Z,71.56
2018-05-01T01:14:27.098Z,71.76
2018-05-01T01:16:56.748Z,71.92
2018-05-01T01:19:26.398Z,72.13
2018-05-01T01:21:56.020Z,72.94
2018-05-01T01:24:25.694Z,73.65
2018-05-01T01:26:55.438Z,73.42
2018-05-01T01:29:25.060Z,73.64
2018-05-01T01:31:54.130Z,73.43
2018-05-01T01:34:23.284Z,73.86
2018-05-01T01:36:51.799Z,74.91
2018-05-01T01:39:20.318Z,75.20
2018-05-01T01:41:48.879Z,75.39
2018-05-01T01:44:17.408Z,76.15
2018-05-01T01:46:45.915Z,77.32
2018-05-01T01:49:14.556Z,77.90
2018-05-01T01:51:43.072Z,78.55
2018-05-01T01:54:11.602Z,78.63
2018-05-01T01:56:40.162Z,78.54
2018-05-01T01:59:08.670Z,77.92
2018-05-01T02:01:37.188Z,77.77
2018-05-01T02:04:05.751Z,77.96
2018-05-01T02:06:34.250Z,77.96
2018-05-01T02:09:02.759Z,77.70
2018-05-01T02:11:31.045Z,77.93
2018-05-01T02:13:59.574Z,78.29
2018-05-01T02:16:28.093Z,78.24
2018-05-01T02:18:56.643Z,77.94
2018-05-01T02:21:25.145Z,77.64
2018-05-01T02:23:53.381Z,77.54
2018-05-01T02:26:21.983Z,77.31
2018-05-01T02:28:50.678Z,77.21
2018-05-01T02:31:19.188Z,77.49
2018-05-01T02:33:47.754Z,77.86
2018-05-01T02:36:16.274Z,77.84
2018-05-01T02:38:44.792Z,77.72
2018-05-01T02:41:13.401Z,76.94
2018-05-01T02:43:42.078Z,76.35
2018-05-01T02:46:10.590Z,76.03
2018-05-01T02:48:39.136Z,75.79
2018-05-01T02:51:07.647Z,76.11
2018-05-01T02:53:36.232Z,76.73
2018-05-01T02:56:06.498Z,77.63
2018-05-01T02:58:36.089Z,77.05
2018-05-01T03:01:04.648Z,77.28
2018-05-01T03:03:33.191Z,76.79
2018-05-01T03:06:01.700Z,76.58
2018-05-01T03:08:30.211Z,76.35
2018-05-01T03:10:58.763Z,76.64
2018-05-01T03:13:27.398Z,76.28
2018-05-01T03:15:55.912Z,76.28
2018-05-01T03:18:24.480Z,76.57
2018-05-01T03:20:52.982Z,76.92
2018-05-01T03:23:21.487Z,77.11
2018-05-01T03:25:50.044Z,77.34
2018-05-01T03:28:18.556Z,77.58
2018-05-01T03:30:47.083Z,77.98
2018-05-01T03:33:15.640Z,77.90
2018-05-01T03:35:44.157Z,78.15
2018-05-01T03:38:12.668Z,78.29
2018-05-01T03:40:41.231Z,77.95
2018-05-01T03:43:09.760Z,78.10
2018-05-01T03:45:38.280Z,78.38
2018-05-01T03:48:06.913Z,78.87
2018-05-01T03:50:35.165Z,78.86
2018-05-01T03:53:03.677Z,79.02
2018-05-01T03:55:32.235Z,79.30
2018-05-01T03:58:00.487Z,79.23
2018-05-01T04:00:29.005Z,79.66
2018-05-01T04:02:57.269Z,80.27
2018-05-01T04:05:25.501Z,80.40
2018-05-01T04:07:54.016Z,79.36
2018-05-01T04:10:22.563Z,79.68
2018-05-01T04:12:51.070Z,79.98
2018-05-01T04:15:19.307Z,79.99
2018-05-01T04:17:47.846Z,79.72
2018-05-01T04:20:16.350Z,80.93
2018-05-01T04:22:44.855Z,79.08
2018-05-01T04:25:13.416Z,79.30
2018-05-01T04:27:41.654Z,80.46
2018-05-01T04:30:10.164Z,81.68
2018-05-01T04:32:38.705Z,80.94
2018-05-01T04:35:07.221Z,83.67
2018-05-01T04:37:35.736Z,87.20
2018-05-01T04:40:04.293Z,89.04
2018-05-01T04:42:32.802Z,89.59
2018-05-01T04:45:01.322Z,90.54
2018-05-01T04:47:29.965Z,91.81
2018-05-01T04:49:58.476Z,92.39
2018-05-01T04:52:26.983Z,92.55
2018-05-01T04:54:55.518Z,92.68
2018-05-01T04:57:24.031Z,92.99
2018-05-01T04:59:52.552Z,91.12
2018-05-01T05:02:21.119Z,89.86
2018-05-01T05:04:49.622Z,89.98
2018-05-01T05:07:18.122Z,90.17
2018-05-01T05:09:46.671Z,90.92
2018-05-01T05:12:15.170Z,91.94
2018-05-01T05:14:43.671Z,91.18
2018-05-01T05:17:12.225Z,90.96
2018-05-01T05:19:41.242Z,91.49
2018-05-01T05:22:09.771Z,91.14
2018-05-01T05:24:38.315Z,90.22
2018-05-01T05:27:06.822Z,89.54
2018-05-01T05:29:35.337Z,89.12
2018-05-01T05:32:03.889Z,88.92
2018-05-01T05:34:32.456Z,90.03
2018-05-01T05:37:00.974Z,88.21
2018-05-01T05:39:29.631Z,87.49
2018-05-01T05:41:58.147Z,87.05
2018-05-01T05:44:26.663Z,84.49
2018-05-01T05:46:55.220Z,83.02
2018-05-01T05:49:23.504Z,81.65
2018-05-01T05:51:52.009Z,81.83
2018-05-01T05:54:20.577Z,82.24
2018-05-01T05:56:49.320Z,80.33
2018-05-01T05:59:17.826Z,79.82
2018-05-01T06:01:46.411Z,78.90
2018-05-01T06:04:14.916Z,81.19
2018-05-01T06:06:43.452Z,82.51
2018-05-01T06:09:12.005Z,81.90
2018-05-01T06:11:40.517Z,83.90
2018-05-01T06:14:09.018Z,81.92
2018-05-01T06:16:37.554Z,80.37
2018-05-01T06:19:06.059Z,80.42
2018-05-01T06:21:34.558Z,75.90
2018-05-01T06:24:03.116Z,74.79
2018-05-01T06:26:31.631Z,73.06
2018-05-01T06:29:00.140Z,72.18
2018-05-01T06:31:28.701Z,69.32
2018-05-01T06:33:57.299Z,66.99
2018-05-01T06:36:25.824Z,73.20
2018-05-01T06:38:54.382Z,65.93
2018-05-01T06:41:22.890Z,53.56
2018-05-01T06:43:51.412Z,48.34
2018-05-01T06:46:19.955Z,43.31
2018-05-01T06:48:48.468Z,39.96
2018-05-01T06:51:16.986Z,40.11
2018-05-01T06:53:45.537Z,40.22
2018-05-01T06:56:14.031Z,40.37
2018-05-01T06:58:42.530Z,42.24
2018-05-01T07:01:11.071Z,40.26
2018-05-01T07:03:39.604Z,42.01
2018-05-01T07:06:08.107Z,38.50
2018-05-01T07:08:36.667Z,38.00
2018-05-01T07:11:05.747Z,34.56
2018-05-01T07:13:34.855Z,30.35
2018-05-01T07:16:03.998Z,26.84
2018-05-01T07:18:33.097Z,24.04
2018-05-01T07:21:02.176Z,24.82
2018-05-01T07:23:31.311Z,24.16
2018-05-01T07:26:00.629Z,24.34
2018-05-01T07:28:29.736Z,23.17
2018-05-01T07:30:58.881Z,21.91
2018-05-01T07:33:27.967Z,20.52
2018-05-01T07:35:56.795Z,20.06
2018-05-01T07:38:26.056Z,20.07
2018-05-01T07:40:55.140Z,20.21
2018-05-01T07:43:24.249Z,19.24
2018-05-01T07:45:53.385Z,21.41
2018-05-01T07:48:22.482Z,23.98
2018-05-01T07:50:51.588Z,23.93
2018-05-01T07:53:20.715Z,27.10
2018-05-01T07:55:49.811Z,29.32
2018-05-01T07:58:18.910Z,31.28
2018-05-01T08:00:48.058Z,31.85
2018-05-01T08:03:17.139Z,33.24
2018-05-01T08:05:46.232Z,34.24
2018-05-01T08:08:15.355Z,34.93
2018-05-01T08:10:43.876Z,37.44
2018-05-01T08:13:12.383Z,39.98
2018-05-01T08:15:40.923Z,41.46
2018-05-01T08:18:09.441Z,42.97
2018-05-01T08:20:37.955Z,42.01
2018-05-01T08:23:06.620Z,43.08
2018-05-01T08:25:35.219Z,44.07
2018-05-01T08:28:05.144Z,43.88
2018-05-01T08:30:33.488Z,43.78
2018-05-01T08:33:02.499Z,44.37
2018-05-01T08:35:31.046Z,44.47
2018-05-01T08:37:59.614Z,44.10
2018-05-01T08:40:28.133Z,43.28
2018-05-01T08:42:56.660Z,41.52
2018-05-01T08:45:25.313Z,38.76
2018-05-01T08:47:53.964Z,35.28
2018-05-01T08:50:22.467Z,33.46
2018-05-01T08:55:32.549Z,32.61
2018-05-01T08:58:01.189Z,30.81
2018-05-01T09:00:29.699Z,27.68
2018-05-01T09:02:58.260Z,27.78
2018-05-01T09:05:26.773Z,28.43
2018-05-01T09:07:55.312Z,29.51
2018-05-01T09:10:23.877Z,31.22
2018-05-01T09:12:52.389Z,32.70
2018-05-01T09:15:20.918Z,32.50
2018-05-01T09:17:49.592Z,33.14
2018-05-01T09:20:17.977Z,31.77
2018-05-01T09:22:46.475Z,32.22
2018-05-01T09:25:15.051Z,31.66
2018-05-01T09:27:43.567Z,31.76
2018-05-01T09:30:12.075Z,31.47
2018-05-01T09:32:40.622Z,31.35
2018-05-01T09:35:09.541Z,32.25
2018-05-01T09:37:38.834Z,31.06
2018-05-01T09:40:07.976Z,30.92
2018-05-01T09:42:36.499Z,31.64
2018-05-01T09:45:05.644Z,31.63
2018-05-01T09:47:34.829Z,32.38
2018-05-01T09:50:04.064Z,30.23
2018-05-01T09:52:34.256Z,29.56
2018-05-01T09:55:04.178Z,29.63
2018-05-01T09:57:33.801Z,29.54
2018-05-01T10:00:03.485Z,30.85
2018-05-01T10:02:32.933Z,31.28
2018-05-01T10:05:02.570Z,32.93
2018-05-01T10:07:32.187Z,31.59
2018-05-01T10:10:01.850Z,32.95
2018-05-01T10:12:31.462Z,34.18
2018-05-01T10:15:01.075Z,32.68
2018-05-01T10:17:30.728Z,32.77
2018-05-01T10:20:00.175Z,33.29
2018-05-01T10:22:29.919Z,33.35
2018-05-01T10:24:59.358Z,33.03
2018-05-01T10:27:29.307Z,32.44
2018-05-01T10:29:58.929Z,31.44
2018-05-01T10:32:28.587Z,30.66
2018-05-01T10:34:58.212Z,31.72
2018-05-01T10:37:27.827Z,31.25
2018-05-01T10:39:58.059Z,31.90
2018-05-01T10:42:27.674Z,31.22
2018-05-01T10:44:57.311Z,31.39
2018-05-01T10:47:26.963Z,32.01
2018-05-01T10:49:56.621Z,32.09
2018-05-01T10:52:26.215Z,32.21
2018-05-01T10:54:55.880Z,31.51
2018-05-01T10:57:26.062Z,31.50
2018-05-01T10:59:56.293Z,31.95
2018-05-01T11:02:26.546Z,31.61
2018-05-01T11:04:56.755Z,30.69
2018-05-01T11:07:27.009Z,32.05
2018-05-01T11:09:56.645Z,31.92
2018-05-01T11:12:26.195Z,32.92
2018-05-01T11:14:55.855Z,32.07
2018-05-01T11:17:25.555Z,31.93
2018-05-01T11:19:55.343Z,31.72
2018-05-01T11:22:25.013Z,31.27
2018-05-01T11:24:54.395Z,31.00
2018-05-01T11:27:24.017Z,30.62
2018-05-01T11:29:53.687Z,31.08
2018-05-01T11:32:23.303Z,31.98
2018-05-01T11:34:53.007Z,31.96
2018-05-01T11:37:22.680Z,29.59
2018-05-01T11:39:52.297Z,29.42
2018-05-01T11:42:22.051Z,30.27
2018-05-01T11:44:51.799Z,30.91
2018-05-01T11:47:21.572Z,32.14
2018-05-01T11:49:51.217Z,29.25
2018-05-01T11:52:21.448Z,28.57
2018-05-01T11:54:51.642Z,30.78
2018-05-01T11:57:21.288Z,32.06
2018-05-01T11:59:50.928Z,32.46
2018-05-01T12:02:20.548Z,32.35
2018-05-01T12:04:50.264Z,33.03
2018-05-01T12:07:20.043Z,33.98
2018-05-01T12:09:49.653Z,32.82
2018-05-01T12:12:19.271Z,34.05
2018-05-01T12:14:48.935Z,34.44
2018-05-01T12:17:18.556Z,34.63
2018-05-01T12:19:48.175Z,34.10
2018-05-01T12:22:17.862Z,35.57
2018-05-01T12:24:47.483Z,33.82
2018-05-01T12:27:17.126Z,32.36
2018-05-01T12:29:46.787Z,33.70
2018-05-01T12:32:16.402Z,34.95
2018-05-01T12:34:46.049Z,34.11
2018-05-01T12:37:15.724Z,34.39
2018-05-01T12:39:45.352Z,35.34
2018-05-01T12:42:14.771Z,36.43
2018-05-01T12:44:44.175Z,34.79
2018-05-01T12:47:14.397Z,34.26
2018-05-01T12:49:44.033Z,34.77
2018-05-01T12:52:13.706Z,34.43
2018-05-01T12:54:43.331Z,33.65
2018-05-01T12:57:13.015Z,33.68
2018-05-01T12:59:42.643Z,34.43
2018-05-01T13:02:12.268Z,33.93
2018-05-01T13:04:41.943Z,33.51
2018-05-01T13:07:11.732Z,34.45
2018-05-01T13:09:41.356Z,34.57
2018-05-01T13:12:11.081Z,33.88
2018-05-01T13:14:40.691Z,33.44
2018-05-01T13:17:10.341Z,33.44
2018-05-01T13:19:40.583Z,32.71
2018-05-01T13:22:09.619Z,33.22
2018-05-01T13:24:39.011Z,32.19
2018-05-01T13:27:08.447Z,31.56
2018-05-01T13:29:38.073Z,30.76
2018-05-01T13:32:07.710Z,31.43
2018-05-01T13:34:37.373Z,31.60
2018-05-01T13:37:07.000Z,30.89
2018-05-01T13:39:36.717Z,31.17
2018-05-01T13:42:06.378Z,30.33
2018-05-01T13:44:36.030Z,29.95
2018-05-01T13:47:05.476Z,29.53
2018-05-01T13:49:35.140Z,29.38
2018-05-01T13:52:04.256Z,30.25
2018-05-01T13:54:33.879Z,29.51
2018-05-01T13:57:03.596Z,29.24
2018-05-01T13:59:33.386Z,29.08
2018-05-01T14:02:02.772Z,28.79
2018-05-01T14:04:32.517Z,28.77
2018-05-01T14:07:02.275Z,29.66
2018-05-01T14:09:31.973Z,28.04
2018-05-01T14:12:01.628Z,28.43
2018-05-01T14:14:31.254Z,28.25
2018-05-01T14:17:00.888Z,27.52
2018-05-01T14:19:30.583Z,27.13
2018-05-01T14:22:00.194Z,26.61
2018-05-01T14:24:29.812Z,27.20
2018-05-01T14:26:59.461Z,28.01
2018-05-01T14:29:29.089Z,27.89
2018-05-01T14:31:58.726Z,27.59
2018-05-01T14:34:28.408Z,28.46
2018-05-01T14:36:58.028Z,29.15
2018-05-01T14:39:27.849Z,30.64
2018-05-01T14:41:57.506Z,29.85
2018-05-01T14:44:27.124Z,30.16
2018-05-01T14:46:56.745Z,29.58
2018-05-01T14:49:26.428Z,30.57
2018-05-01T14:51:56.647Z,30.17
2018-05-01T14:54:26.876Z,30.63
2018-05-01T14:56:57.119Z,31.67
2018-05-01T14:59:27.083Z,32.70
2018-05-01T15:01:57.296Z,32.54
2018-05-01T15:04:27.531Z,32.81
2018-05-01T15:09:35.185Z,32.66
2018-05-01T15:12:05.370Z,32.37
2018-05-01T15:14:35.138Z,32.00
2018-05-01T15:17:05.408Z,32.73
2018-05-01T15:19:35.027Z,32.80
2018-05-01T15:22:04.668Z,33.17
2018-05-01T15:24:34.342Z,33.32
2018-05-01T15:27:03.495Z,33.68
2018-05-01T15:29:33.119Z,33.29
2018-05-01T15:32:02.770Z,33.74
2018-05-01T15:34:32.478Z,34.33
2018-05-01T15:37:02.104Z,34.50
2018-05-01T15:39:31.785Z,34.28
2018-05-01T15:42:01.419Z,34.15
2018-05-01T15:44:31.058Z,34.41
2018-05-01T15:47:00.714Z,34.39
2018-05-01T15:49:30.358Z,35.26
2018-05-01T15:52:00.073Z,35.42
2018-05-01T15:54:29.728Z,35.07
2018-05-01T15:56:59.363Z,34.93
2018-05-01T15:59:28.982Z,35.47
2018-05-01T16:01:58.629Z,35.28
2018-05-01T16:04:28.029Z,34.95
2018-05-01T16:06:57.656Z,35.11
2018-05-01T16:09:27.314Z,34.71
2018-05-01T16:11:56.960Z,34.85
2018-05-01T16:14:26.338Z,34.68
2018-05-01T16:16:55.759Z,34.73
2018-05-01T16:19:25.152Z,35.34
2018-05-01T16:21:54.768Z,35.52
2018-05-01T16:24:25.032Z,35.33
2018-05-01T16:26:54.689Z,35.72
2018-05-01T16:29:24.079Z,35.97
2018-05-01T16:31:53.735Z,36.05
2018-05-01T16:34:23.346Z,36.00
2018-05-01T16:36:52.991Z,36.22
2018-05-01T16:39:22.701Z,36.50
2018-05-01T16:41:52.374Z,36.40
2018-05-01T16:44:22.030Z,36.51
2018-05-01T16:46:51.696Z,36.73
2018-05-01T16:49:21.317Z,37.00
2018-05-01T16:51:50.950Z,37.29
2018-05-01T16:54:20.608Z,37.50
2018-05-01T16:56:50.241Z,37.63
2018-05-01T16:59:20.153Z,37.94
2018-05-01T17:01:49.824Z,39.12
2018-05-01T17:04:19.441Z,41.42
2018-05-01T17:06:49.318Z,42.11
2018-05-01T17:09:18.978Z,41.85
2018-05-01T17:11:48.616Z,42.20
2018-05-01T17:14:18.284Z,43.33
2018-05-01T17:16:47.947Z,44.49
2018-05-01T17:19:17.418Z,46.63
2018-05-01T17:21:47.040Z,49.67
2018-05-01T17:24:16.474Z,48.54
2018-05-01T17:26:46.093Z,48.41
2018-05-01T17:29:16.263Z,48.06
2018-05-01T17:31:46.069Z,46.76
2018-05-01T17:34:15.703Z,49.69
2018-05-01T17:36:45.350Z,52.19
2018-05-01T17:39:15.136Z,54.19
2018-05-01T17:41:44.760Z,56.20
2018-05-01T17:44:14.374Z,57.41
2018-05-01T17:46:44.209Z,58.14
2018-05-01T17:49:14.063Z,59.27
2018-05-01T17:51:43.811Z,60.25
2018-05-01T17:54:13.482Z,61.30
2018-05-01T17:56:43.096Z,61.44
2018-05-01T17:59:12.744Z,62.45
2018-05-01T18:01:42.500Z,62.64
2018-05-01T18:04:12.110Z,62.57
2018-05-01T18:06:41.748Z,62.36
2018-05-01T18:09:11.386Z,62.28
2018-05-01T18:11:41.029Z,62.17
2018-05-01T18:14:10.658Z,62.35
2018-05-01T18:16:40.247Z,62.17
2018-05-01T18:19:09.855Z,62.12
2018-05-01T18:21:39.492Z,62.38
2018-05-01T18:24:09.152Z,62.65
2018-05-01T18:26:38.776Z,62.71
2018-05-01T18:29:08.400Z,63.00
2018-05-01T18:31:38.072Z,64.21
2018-05-01T18:34:07.724Z,65.05
2018-05-01T18:36:37.346Z,65.85
2018-05-01T18:39:06.453Z,66.38
2018-05-01T18:41:36.102Z,66.25
2018-05-01T18:44:06.068Z,66.37
2018-05-01T18:46:35.739Z,68.71
2018-05-01T18:49:05.373Z,70.72
2018-05-01T18:51:35.114Z,72.32
2018-05-01T18:54:04.774Z,73.23
2018-05-01T18:56:34.477Z,72.85
2018-05-01T18:59:04.107Z,73.05
2018-05-01T19:01:33.779Z,73.14
2018-05-01T19:04:03.417Z,73.10
2018-05-01T19:06:33.186Z,73.34
2018-05-01T19:09:02.859Z,74.05
2018-05-01T19:11:31.990Z,73.98
2018-05-01T19:14:01.387Z,73.29
2018-05-01T19:16:31.075Z,73.55
2018-05-01T19:19:00.843Z,74.44
2018-05-01T19:21:30.501Z,74.48
2018-05-01T19:24:00.171Z,74.50
2018-05-01T19:26:29.804Z,74.48
2018-05-01T19:28:59.442Z,75.16
2018-05-01T19:31:29.123Z,75.47
2018-05-01T19:33:58.768Z,75.63
2018-05-01T19:36:28.416Z,76.12
2018-05-01T19:38:58.091Z,77.24
2018-05-01T19:41:27.738Z,78.36
2018-05-01T19:43:57.410Z,78.29
2018-05-01T19:46:27.095Z,78.83
2018-05-01T19:48:56.719Z,79.03
2018-05-01T19:51:27.211Z,79.01
2018-05-01T19:53:56.874Z,78.34
2018-05-01T19:56:27.115Z,78.07
2018-05-01T19:58:56.934Z,79.11
2018-05-01T20:01:26.624Z,79.32
2018-05-01T20:03:56.260Z,79.73
2018-05-01T20:06:25.899Z,79.61
2018-05-01T20:08:55.651Z,79.53
2018-05-01T20:11:26.262Z,80.25
2018-05-01T20:13:55.921Z,80.45
2018-05-01T20:16:25.588Z,80.19
2018-05-01T20:18:55.230Z,80.06
2018-05-01T20:21:24.850Z,80.55
2018-05-01T20:23:54.522Z,80.99
2018-05-01T20:26:24.160Z,80.97
2018-05-01T20:28:53.799Z,81.76
2018-05-01T20:31:23.463Z,81.85
2018-05-01T20:38:05.309Z,61.10
2018-05-01T20:40:34.951Z,58.03
2018-05-01T20:43:04.593Z,58.83
2018-05-01T20:45:34.271Z,60.50
2018-05-01T20:48:03.638Z,62.14
2018-05-01T20:50:33.288Z,64.10
2018-05-01T20:53:02.978Z,65.94
2018-05-01T20:55:32.635Z,67.56
2018-05-01T20:58:02.275Z,68.86
2018-05-01T21:00:31.943Z,70.11
2018-05-01T21:03:01.582Z,71.66
2018-05-01T21:05:31.280Z,72.38
2018-05-01T21:08:00.960Z,72.14
2018-05-01T21:10:30.594Z,70.50
2018-05-01T21:13:00.268Z,69.35
2018-05-01T21:15:29.637Z,68.29
2018-05-01T21:17:59.267Z,68.58
2018-05-01T21:20:28.937Z,68.67
2018-05-01T21:22:58.577Z,65.69
2018-05-01T21:25:28.243Z,64.39
2018-05-01T21:27:57.903Z,64.70
2018-05-01T21:30:27.531Z,64.41
2018-05-01T21:32:57.179Z,64.39
2018-05-01T21:35:26.843Z,64.98
2018-05-01T21:37:56.182Z,64.60
2018-05-01T21:40:25.819Z,65.52
2018-05-01T21:42:55.557Z,66.30
2018-05-01T21:45:25.346Z,65.76
2018-05-01T21:47:54.994Z,64.92
2018-05-01T21:50:24.668Z,63.79
2018-05-01T21:52:54.289Z,62.68
2018-05-01T21:55:23.936Z,62.39
2018-05-01T21:57:53.605Z,62.26
2018-05-01T22:00:23.232Z,62.25
2018-05-01T22:02:52.591Z,61.52
2018-05-01T22:05:22.323Z,61.36
2018-05-01T22:07:51.951Z,61.18
2018-05-01T22:10:21.295Z,60.96
2018-05-01T22:12:50.922Z,60.60
2018-05-01T22:15:20.551Z,60.72
2018-05-01T22:17:50.167Z,61.12
2018-05-01T22:20:19.832Z,61.33
2018-05-01T22:22:49.455Z,61.56
2018-05-01T22:25:19.084Z,61.37
2018-05-01T22:27:48.747Z,61.57
2018-05-01T22:30:18.369Z,61.44
2018-05-01T22:32:48.083Z,61.21
2018-05-01T22:35:17.714Z,61.20
2018-05-01T22:37:47.325Z,61.30
2018-05-01T22:40:16.991Z,62.03
2018-05-01T22:42:46.602Z,61.16
2018-05-01T22:45:16.209Z,60.83
2018-05-01T22:47:45.864Z,60.11
2018-05-01T22:50:15.474Z,59.36
2018-05-01T22:52:45.100Z,58.41
2018-05-01T22:55:14.772Z,57.91
2018-05-01T22:57:44.400Z,57.59
2018-05-01T23:00:13.468Z,57.56
2018-05-01T23:02:42.658Z,57.56
2018-05-01T23:05:12.276Z,57.57
2018-05-01T23:07:41.913Z,57.78
2018-05-01T23:10:11.576Z,57.87
2018-05-01T23:12:41.198Z,58.14
2018-05-01T23:15:10.835Z,58.05
2018-05-01T23:17:40.500Z,58.24
2018-05-01T23:20:10.148Z,57.80
2018-05-01T23:22:39.793Z,57.87
2018-05-01T23:25:09.459Z,57.53
2018-05-01T23:27:39.119Z,57.12
2018-05-01T23:30:08.759Z,56.66
2018-05-01T23:32:38.152Z,56.35
2018-05-01T23:35:07.762Z,55.87
2018-05-01T23:37:37.105Z,55.05
2018-05-01T23:40:06.775Z,55.12
2018-05-01T23:42:36.401Z,54.81
2018-05-01T23:45:06.024Z,54.58
2018-05-01T23:47:35.698Z,54.03
2018-05-01T23:50:05.088Z,53.68
2018-05-01T23:52:34.711Z,53.97
2018-05-01T23:55:04.398Z,54.23
2018-05-01T23:57:34.040Z,54.52
